CYQM

Greater Moncton International Airport

Moncton, New Brunswick, Canada
METAR CYQM 201600Z 07005KT 040V140 15SM BKN033TCU BKN047 BKN230 23/15 A3022 RMK TCU5SC1CI1 CI TR SLP235 DENSITY ALT 900FT
Observed Flight Rules
Aug-20 @ 16:00 UTC (24 minutes ago) Visual Flight Rules
Wind Visibility Clouds
70° at 5 knots 15 miles
  • Broken at 3,300' AGL
  • Broken at 4,700' AGL
  • Broken at 23,000' AGL
Temperatures Readings
Current 23°C / 73°F
Dewpoint 15°C / 59°F
Humidity 61%
Altimeter 30.22" Hg
Pressure 1023.5 hPa
Elevation 71
METAR CYQM 201600Z 07005KT 040V140 15SM BKN033TCU BKN047 BKN230 23/15 A3022 RMK TCU5SC1CI1 CI TR SLP235 DENSITY ALT 900FT
Observed Flight Rules
Aug-20 @ 16:00 UTC
(24 minutes ago)
VFR
Wind Visibility
70° at 5 knots 15 miles
Clouds
  • Broken at 3,300' AGL
  • Broken at 4,700' AGL
  • Broken at 23,000' AGL
Temperature Dewpoint
23°C / 73°F 15°C / 59°F
Humidity Altimeter Pressure
61% 30.22" Hg 1023.5 hPa